Time;durP1;ratioP1;P1;durP2;ratioP2;P2;SDS_P1;SDS_P2;PMS_P1;PMS_P2;Temp;Humidity;BMP_temperature;BMP_pressure;BME280_temperature;BME280_humidity;BME280_pressure;Samples;Min_cycle;Max_cycle;Signal;HPM_P1;HPM_P2
2023/06/22 00:01:06;;;;;;;8.95;3.63;;;25.40;49.10;;;;;;5032879;28;20152;-75
2023/06/22 00:03:35;;;;;;;8.32;4.25;;;25.30;49.00;;;;;;5032484;28;20029;-74
2023/06/22 00:06:01;;;;;;;5.03;3.38;;;25.30;49.50;;;;;;5032536;28;20029;-75
2023/06/22 00:08:32;;;;;;;4.75;2.88;;;25.30;49.20;;;;;;5032644;28;20028;-75
2023/06/22 00:11:09;;;;;;;5.72;3.42;;;25.20;49.30;;;;;;5031413;28;20025;-75
2023/06/22 00:13:38;;;;;;;9.70;3.92;;;25.20;49.50;;;;;;5032146;28;20029;-75
2023/06/22 00:16:06;;;;;;;6.32;3.65;;;25.20;49.50;;;;;;5032861;28;20091;-75
2023/06/22 00:18:46;;;;;;;7.18;3.40;;;25.10;49.60;;;;;;5014958;28;20029;-74
2023/06/22 00:21:15;;;;;;;5.85;2.92;;;25.10;49.50;;;;;;5013599;28;20051;-75
2023/06/22 00:23:50;;;;;;;7.55;3.80;;;25.00;49.60;;;;;;5032395;28;20032;-75
2023/06/22 00:26:27;;;;;;;11.65;3.78;;;25.00;49.70;;;;;;5032399;28;20025;-75
2023/06/22 00:29:05;;;;;;;9.98;3.72;;;24.90;49.90;;;;;;5013895;28;20124;-75
2023/06/22 00:31:34;;;;;;;7.75;3.70;;;24.90;49.50;;;;;;5032380;28;20049;-75
2023/06/22 00:34:02;;;;;;;9.20;3.05;;;24.90;49.40;;;;;;5031620;28;20044;-75
2023/06/22 00:36:28;;;;;;;9.23;3.38;;;24.80;49.50;;;;;;5014437;28;20029;-75
2023/06/22 00:39:03;;;;;;;8.55;3.70;;;24.80;49.80;;;;;;5032154;28;20478;-75
2023/06/22 00:41:28;;;;;;;7.03;2.97;;;24.70;49.70;;;;;;5031904;28;20026;-75
2023/06/22 00:43:55;;;;;;;9.82;3.67;;;24.70;49.90;;;;;;5032207;28;20075;-75
2023/06/22 00:46:24;;;;;;;14.63;3.50;;;24.60;50.30;;;;;;5032001;28;20380;-74
2023/06/22 00:48:57;;;;;;;6.00;2.83;;;24.60;50.30;;;;;;5031879;28;20095;-75
2023/06/22 00:51:24;;;;;;;7.60;3.13;;;24.60;50.00;;;;;;5012505;28;20057;-75
2023/06/22 00:53:53;;;;;;;6.55;2.63;;;24.50;50.30;;;;;;5028270;28;20132;-75
2023/06/22 00:56:29;;;;;;;8.48;3.58;;;24.50;50.10;;;;;;5024500;28;20080;-74
2023/06/22 00:58:59;;;;;;;9.02;3.95;;;24.50;51.00;;;;;;4994650;28;20393;-75
2023/06/22 01:01:25;;;;;;;9.52;3.17;;;24.40;50.80;;;;;;5012008;28;20421;-74
2023/06/22 01:03:58;;;;;;;7.90;2.92;;;24.40;50.60;;;;;;4994750;28;20033;-75
2023/06/22 01:06:38;;;;;;;10.93;4.07;;;24.40;50.60;;;;;;4994560;28;20026;-75
2023/06/22 01:09:22;;;;;;;4.70;2.90;;;24.40;50.90;;;;;;5019399;28;20021;-75
2023/06/22 01:11:59;;;;;;;10.27;3.35;;;24.30;50.80;;;;;;5031994;28;20029;-75
2023/06/22 01:14:37;;;;;;;7.53;3.83;;;24.30;50.80;;;;;;5014195;28;20041;-75
2023/06/22 01:17:09;;;;;;;12.13;3.53;;;24.20;50.90;;;;;;5014103;28;20068;-75
2023/06/22 01:19:57;;;;;;;7.15;3.70;;;24.20;51.20;;;;;;5031303;28;20100;-75
2023/06/22 01:22:30;;;;;;;10.13;3.15;;;24.20;51.20;;;;;;5031293;28;20029;-76
2023/06/22 01:25:21;;;;;;;8.30;3.97;;;24.20;51.20;;;;;;5031698;28;20041;-74
2023/06/22 01:27:53;;;;;;;6.93;3.33;;;24.10;51.40;;;;;;5031687;28;20026;-75
2023/06/22 01:30:19;;;;;;;7.43;3.28;;;24.10;51.40;;;;;;5031997;28;20061;-74
2023/06/22 01:32:51;;;;;;;6.72;3.53;;;24.10;51.20;;;;;;5008496;28;20045;-74
2023/06/22 01:35:20;;;;;;;8.93;2.88;;;24.00;51.20;;;;;;5031810;28;20087;-75
2023/06/22 01:37:52;;;;;;;11.80;3.10;;;24.00;51.60;;;;;;5031737;28;20084;-75
2023/06/22 01:40:26;;;;;;;6.07;3.05;;;24.00;51.50;;;;;;5014069;28;20112;-75
2023/06/22 01:42:55;;;;;;;8.55;3.45;;;24.00;51.60;;;;;;5014069;28;20041;-75
2023/06/22 01:45:25;;;;;;;4.38;2.85;;;23.90;51.70;;;;;;5031756;28;20029;-74
2023/06/22 01:47:51;;;;;;;8.13;3.53;;;23.90;51.90;;;;;;5013907;28;20079;-74
2023/06/22 01:50:17;;;;;;;7.18;3.90;;;23.90;53.20;;;;;;5031520;28;20373;-74
2023/06/22 01:52:43;;;;;;;6.75;2.90;;;23.90;52.50;;;;;;5013179;28;20037;-74
2023/06/22 01:55:09;;;;;;;4.95;2.65;;;23.90;52.40;;;;;;5031494;28;20033;-74
2023/06/22 01:57:44;;;;;;;6.60;2.70;;;23.90;52.30;;;;;;5013876;28;20029;-74
2023/06/22 02:00:22;;;;;;;6.50;3.25;;;23.80;52.40;;;;;;5013967;28;20025;-74
2023/06/22 02:03:07;;;;;;;5.47;3.10;;;23.80;52.40;;;;;;5031666;28;20037;-74
2023/06/22 02:05:42;;;;;;;4.07;2.90;;;23.80;52.20;;;;;;5013756;28;20025;-74
2023/06/22 02:08:23;;;;;;;5.95;2.97;;;23.80;52.00;;;;;;5010483;28;20562;-74
2023/06/22 02:10:53;;;;;;;8.65;3.78;;;23.80;52.10;;;;;;5011722;28;20026;-74
2023/06/22 02:13:22;;;;;;;9.25;3.78;;;23.80;52.30;;;;;;5011697;28;20038;-74
2023/06/22 02:15:54;;;;;;;5.95;3.22;;;23.80;52.50;;;;;;5010224;28;20050;-74
2023/06/22 02:18:25;;;;;;;8.55;3.60;;;23.80;52.30;;;;;;5012017;28;20101;-75
2023/06/22 02:20:57;;;;;;;7.68;3.83;;;23.80;52.30;;;;;;5013472;28;20092;-74
2023/06/22 02:23:28;;;;;;;7.63;3.28;;;23.70;52.30;;;;;;5028493;28;20041;-74
2023/06/22 02:25:54;;;;;;;5.70;3.60;;;23.70;52.20;;;;;;5016545;28;20033;-75
2023/06/22 02:28:23;;;;;;;9.05;3.75;;;23.70;52.10;;;;;;5034686;28;20480;-74
2023/06/22 02:30:48;;;;;;;6.95;3.10;;;23.60;51.90;;;;;;5035085;28;20060;-75
2023/06/22 02:33:17;;;;;;;6.35;3.55;;;23.60;52.20;;;;;;5034642;28;20061;-75
2023/06/22 02:35:48;;;;;;;6.45;3.45;;;23.60;52.00;;;;;;5034495;28;20084;-75
2023/06/22 02:38:20;;;;;;;9.57;4.35;;;23.60;52.40;;;;;;5017015;28;20026;-74
2023/06/22 02:40:54;;;;;;;6.18;3.08;;;23.60;52.50;;;;;;5034594;28;20380;-74
2023/06/22 02:43:28;;;;;;;8.98;3.33;;;23.50;52.10;;;;;;5016768;28;20091;-74
2023/06/22 02:45:57;;;;;;;8.65;3.60;;;23.60;52.10;;;;;;5034269;28;20033;-75
2023/06/22 02:48:23;;;;;;;10.02;3.28;;;23.50;52.30;;;;;;5034313;28;20041;-74
2023/06/22 02:50:48;;;;;;;4.38;2.83;;;23.50;52.20;;;;;;5034184;28;20029;-75
2023/06/22 02:53:17;;;;;;;8.98;4.50;;;23.50;52.20;;;;;;5033548;28;20660;-75
2023/06/22 02:55:45;;;;;;;9.60;3.50;;;23.50;52.50;;;;;;5016554;28;20049;-75
2023/06/22 02:58:14;;;;;;;11.50;4.25;;;23.40;52.30;;;;;;5034143;28;20428;-75
2023/06/22 03:00:39;;;;;;;9.30;3.42;;;23.40;52.30;;;;;;5034357;28;20033;-74
2023/06/22 03:03:11;;;;;;;7.63;3.42;;;23.40;52.30;;;;;;5034371;28;20025;-74
2023/06/22 03:05:36;;;;;;;7.53;3.42;;;23.40;52.30;;;;;;5015552;28;20189;-74
2023/06/22 03:08:07;;;;;;;8.35;3.20;;;23.40;52.40;;;;;;5013973;28;20519;-74
2023/06/22 03:10:42;;;;;;;6.78;3.03;;;23.40;52.30;;;;;;5016035;28;20118;-74
2023/06/22 03:13:10;;;;;;;9.23;3.90;;;23.40;52.90;;;;;;5014241;28;20032;-74
2023/06/22 03:15:36;;;;;;;9.52;4.32;;;23.40;52.50;;;;;;4996273;28;20033;-75
2023/06/22 03:18:07;;;;;;;12.23;3.58;;;23.30;52.40;;;;;;5013829;28;20081;-74
2023/06/22 03:21:20;;;;;;;5.88;3.15;;;23.40;52.60;;;;;;5020871;28;20108;-74
2023/06/22 03:23:45;;;;;;;7.88;3.67;;;23.40;52.40;;;;;;5032643;28;20045;-73
2023/06/22 03:26:13;;;;;;;8.38;3.88;;;23.40;52.70;;;;;;5033724;28;20400;-74
2023/06/22 03:28:45;;;;;;;5.30;3.78;;;23.40;52.90;;;;;;5033801;28;20079;-75
2023/06/22 03:31:13;;;;;;;5.28;3.38;;;23.40;52.80;;;;;;5032673;28;20022;-74
2023/06/22 03:33:39;;;;;;;5.28;2.75;;;23.40;52.70;;;;;;5032933;28;20437;-75
2023/06/22 03:36:05;;;;;;;7.35;3.35;;;23.40;52.60;;;;;;5033303;28;20025;-75
2023/06/22 03:38:33;;;;;;;7.07;2.75;;;23.50;52.90;;;;;;5033167;28;20026;-74
2023/06/22 03:41:20;;;;;;;9.05;4.00;;;23.50;52.70;;;;;;5033575;28;20026;-75
2023/06/22 03:44:12;;;;;;;7.50;3.15;;;23.50;52.90;;;;;;5015688;28;20087;-75
2023/06/22 03:49:46;;;;;;;11.20;3.53;;;23.60;52.60;;;;;;4932913;29;20045;-75
2023/06/22 03:52:33;;;;;;;6.57;3.67;;;23.70;52.60;;;;;;5032245;28;20463;-75
2023/06/22 03:55:02;;;;;;;8.30;3.42;;;23.70;52.60;;;;;;5018559;28;20397;-75
2023/06/22 03:57:31;;;;;;;4.18;3.10;;;23.80;52.60;;;;;;5032078;28;20048;-75
2023/06/22 03:59:57;;;;;;;6.68;3.25;;;23.80;52.60;;;;;;5033203;28;20026;-75
2023/06/22 04:02:29;;;;;;;9.45;3.50;;;23.80;52.50;;;;;;5032919;28;20067;-75
2023/06/22 04:04:58;;;;;;;6.47;3.53;;;23.80;52.50;;;;;;5013537;28;20037;-75
2023/06/22 04:07:37;;;;;;;4.18;3.03;;;23.90;52.50;;;;;;5015011;28;20032;-75
2023/06/22 04:10:06;;;;;;;5.82;3.10;;;24.00;52.50;;;;;;5015004;28;20374;-76
2023/06/22 04:12:37;;;;;;;6.25;3.20;;;24.00;52.40;;;;;;5032699;28;20051;-75
2023/06/22 04:15:03;;;;;;;7.68;3.72;;;24.10;52.50;;;;;;5015255;28;20120;-76
2023/06/22 04:17:29;;;;;;;11.68;3.80;;;24.10;52.50;;;;;;5032776;28;20029;-75
2023/06/22 04:19:55;;;;;;;6.22;4.13;;;24.20;52.30;;;;;;5032804;28;20373;-75
2023/06/22 04:22:23;;;;;;;8.52;3.88;;;24.20;52.40;;;;;;5015011;28;20036;-76
2023/06/22 04:24:52;;;;;;;5.90;3.33;;;24.30;52.30;;;;;;5020321;28;20037;-75
2023/06/22 04:28:12;;;;;;;9.40;3.55;;;24.30;52.10;;;;;;5032527;28;20082;-75
2023/06/22 04:30:46;;;;;;;5.72;3.25;;;24.40;51.80;;;;;;4956048;28;20504;-75
2023/06/22 04:33:23;;;;;;;5.63;3.30;;;24.50;51.80;;;;;;5032851;28;20029;-74
2023/06/22 04:36:01;;;;;;;6.03;3.42;;;24.50;51.80;;;;;;5015307;28;20040;-74
2023/06/22 04:38:34;;;;;;;8.27;3.67;;;24.60;51.80;;;;;;5014872;28;20025;-75
2023/06/22 04:41:03;;;;;;;12.20;3.00;;;24.60;51.70;;;;;;5032625;28;20026;-75
2023/06/22 04:43:31;;;;;;;6.90;3.17;;;24.70;51.70;;;;;;5011355;28;20029;-75
2023/06/22 04:46:03;;;;;;;9.13;3.65;;;24.80;51.60;;;;;;5031822;28;20030;-75
2023/06/22 04:48:34;;;;;;;8.85;3.92;;;24.80;51.70;;;;;;5022716;28;20101;-76
2023/06/22 04:51:03;;;;;;;4.43;3.17;;;24.90;51.70;;;;;;5012245;28;20030;-76
2023/06/22 04:53:32;;;;;;;6.93;3.30;;;24.90;51.60;;;;;;5012071;28;20473;-74
2023/06/22 04:55:58;;;;;;;8.93;3.70;;;25.00;51.40;;;;;;5026977;28;20021;-74
2023/06/22 04:58:32;;;;;;;8.13;3.70;;;25.00;51.40;;;;;;5032000;28;20030;-74
2023/06/22 05:00:57;;;;;;;;;;;25.10;51.50;;;;;;5031615;28;20112;-74
2023/06/22 05:04:26;;;;;;;9.02;4.78;;;25.20;51.30;;;;;;5032375;28;19976;-75
2023/06/22 05:07:52;;;;;;;9.68;4.45;;;25.20;51.00;;;;;;5029885;28;20040;-74
2023/06/22 05:11:19;;;;;;;8.88;3.95;;;25.20;51.10;;;;;;5025227;28;20053;-75
2023/06/22 05:14:47;;;;;;;10.93;4.40;;;25.30;51.40;;;;;;5034380;28;20034;-74
2023/06/22 05:17:56;;;;;;;9.95;3.67;;;25.40;51.10;;;;;;5031571;28;20128;-74
2023/06/22 05:20:22;;;;;;;10.63;4.90;;;25.50;51.20;;;;;;5031714;28;20101;-75
2023/06/22 05:22:52;;;;;;;9.90;4.53;;;25.60;51.00;;;;;;5030199;28;20038;-75
2023/06/22 05:25:18;;;;;;;12.07;4.00;;;25.60;50.90;;;;;;5030246;28;20114;-75
2023/06/22 05:27:44;;;;;;;7.40;3.83;;;25.60;50.70;;;;;;5030720;28;20045;-75
2023/06/22 05:30:11;;;;;;;8.68;4.22;;;25.70;50.90;;;;;;5013096;28;20025;-73
2023/06/22 05:32:39;;;;;;;6.55;3.83;;;25.80;51.60;;;;;;5030537;28;20060;-75
2023/06/22 05:35:05;;;;;;;8.73;4.10;;;25.80;51.00;;;;;;5030521;28;20036;-74
2023/06/22 05:37:34;;;;;;;7.35;3.70;;;26.00;51.00;;;;;;5029987;28;20528;-74
2023/06/22 05:39:59;;;;;;;9.27;3.95;;;26.00;50.80;;;;;;5031135;28;20101;-75
2023/06/22 05:42:25;;;;;;;5.50;3.40;;;26.10;50.60;;;;;;5030886;28;20117;-75
2023/06/22 05:44:53;;;;;;;8.68;3.97;;;26.20;50.40;;;;;;5031347;28;20028;-75
2023/06/22 05:47:19;;;;;;;7.25;3.70;;;26.30;50.30;;;;;;5031369;28;20034;-75
2023/06/22 05:49:45;;;;;;;12.23;4.07;;;26.30;50.10;;;;;;5014083;28;20029;-74
2023/06/22 05:52:11;;;;;;;7.93;3.63;;;26.40;50.10;;;;;;5031009;28;20037;-75
2023/06/22 05:54:38;;;;;;;6.80;3.80;;;26.50;50.20;;;;;;5013815;28;20467;-75
2023/06/22 05:57:42;;;;;;;7.65;3.92;;;26.60;50.10;;;;;;5034252;28;20025;-75
2023/06/22 06:03:24;;;;;;;12.25;3.38;;;26.70;50.00;;;;;;5033232;28;20038;-75
2023/06/22 06:08:44;;;;;;;8.48;4.18;;;26.90;49.80;;;;;;5026584;28;20401;-75
2023/06/22 06:14:39;;;;;;;11.45;4.10;;;27.00;49.50;;;;;;5021229;28;20385;-73
2023/06/22 06:17:44;;;;;;;9.88;4.50;;;27.10;49.50;;;;;;5017389;28;20034;-74
2023/06/22 06:21:05;;;;;;;13.40;4.32;;;27.20;49.40;;;;;;4995402;28;20485;-75
2023/06/22 06:27:54;;;;;;;8.52;4.57;;;27.40;49.00;;;;;;4995182;28;20478;-75
2023/06/22 06:34:38;;;;;;;11.65;5.50;;;27.50;48.60;;;;;;4995293;28;20081;-74
2023/06/22 06:37:21;;;;;;;9.93;5.22;;;27.60;48.40;;;;;;4977698;28;20632;-74
2023/06/22 06:40:27;;;;;;;11.73;5.68;;;27.70;48.40;;;;;;5014761;28;20108;-75
2023/06/22 06:43:45;;;;;;;8.23;4.95;;;27.80;48.10;;;;;;4996832;28;20511;-75
2023/06/22 06:57:22;;;;;;;14.07;5.80;;;28.20;47.50;;;;;;5014281;28;20120;-74
2023/06/22 07:00:25;;;;;;;9.68;5.45;;;28.30;47.10;;;;;;5014073;28;20099;-74
2023/06/22 07:03:43;;;;;;;10.25;5.47;;;28.30;47.00;;;;;;5012001;28;20132;-75
2023/06/22 07:16:59;;;;;;;6.97;4.20;;;28.80;45.90;;;;;;5029387;28;20064;-75
2023/06/22 07:20:23;;;;;;;7.03;4.15;;;28.90;45.60;;;;;;5033846;28;20022;-74
2023/06/22 07:23:42;;;;;;;7.20;4.03;;;29.00;45.40;;;;;;4976723;28;20512;-74
2023/06/22 07:37:13;;;;;;;8.40;4.47;;;29.30;44.40;;;;;;4994094;28;20030;-74
2023/06/22 07:40:31;;;;;;;6.25;3.83;;;29.40;43.80;;;;;;5012776;28;20055;-75
2023/06/22 07:47:01;;;;;;;9.40;4.00;;;29.60;43.70;;;;;;5032710;28;20091;-74
2023/06/22 07:53:28;;;;;;;7.90;4.18;;;29.90;43.70;;;;;;5033246;28;20569;-75
2023/06/22 08:00:15;;;;;;;10.65;4.40;;;30.10;43.40;;;;;;5027757;28;20060;-75
2023/06/22 08:03:40;;;;;;;7.30;3.97;;;30.20;42.90;;;;;;5013365;28;20034;-75
2023/06/22 08:09:36;;;;;;;7.72;4.40;;;30.40;42.90;;;;;;5015063;28;20069;-74
2023/06/22 08:12:55;;;;;;;10.48;4.53;;;30.60;42.70;;;;;;5032950;28;20028;-74
2023/06/22 08:16:01;;;;;;;7.75;4.38;;;30.70;42.50;;;;;;5032678;28;20060;-75
2023/06/22 08:29:02;;;;;;;9.65;4.35;;;31.20;41.90;;;;;;5032239;28;20025;-74
2023/06/22 08:35:27;;;;;;;10.60;5.03;;;31.40;41.50;;;;;;5032282;28;20025;-75
2023/06/22 08:41:55;;;;;;;21.55;6.07;;;31.50;41.40;;;;;;5018065;28;20038;-74
2023/06/22 08:44:59;;;;;;;9.65;4.63;;;31.60;41.30;;;;;;5012457;28;20030;-74
2023/06/22 08:54:48;;;;;;;13.75;6.15;;;31.90;41.20;;;;;;5012891;28;20030;-74
2023/06/22 08:58:09;;;;;;;16.80;5.97;;;31.90;41.10;;;;;;5012250;28;20022;-74
2023/06/22 09:14:32;;;;;;;17.53;6.20;;;32.30;40.30;;;;;;5012311;28;20056;-74
2023/06/22 09:20:41;;;;;;;14.38;5.57;;;32.30;40.30;;;;;;4995920;28;20030;-74
2023/06/22 09:26:54;;;;;;;15.02;5.53;;;32.50;40.00;;;;;;5012116;28;20057;-74
2023/06/22 09:29:22;;;;;;;11.18;5.75;;;32.60;39.30;;;;;;5011934;28;20453;-75
2023/06/22 09:31:53;;;;;;;9.93;5.53;;;32.60;39.00;;;;;;4998297;28;20033;-74
2023/06/22 09:34:20;;;;;;;9.23;4.63;;;32.70;39.30;;;;;;4998160;28;20556;-74
2023/06/22 09:36:55;;;;;;;20.95;5.85;;;32.70;39.90;;;;;;5016173;28;20022;-75
2023/06/22 09:39:28;;;;;;;16.50;5.57;;;32.70;39.10;;;;;;5012521;28;20034;-74
2023/06/22 09:41:54;;;;;;;11.27;4.63;;;32.80;39.40;;;;;;5006578;28;20030;-74
2023/06/22 09:44:31;;;;;;;14.20;5.50;;;32.80;39.10;;;;;;4998436;28;20053;-73
2023/06/22 09:46:59;;;;;;;19.15;5.70;;;32.90;39.20;;;;;;5015941;28;20037;-75
2023/06/22 09:49:28;;;;;;;13.80;5.38;;;32.90;39.10;;;;;;5015847;28;20452;-74
2023/06/22 09:51:56;;;;;;;17.52;5.15;;;32.90;39.30;;;;;;5015779;28;20026;-74
2023/06/22 09:54:24;;;;;;;10.30;4.85;;;33.00;39.00;;;;;;5015550;28;20021;-75
2023/06/22 09:56:50;;;;;;;14.65;5.60;;;33.00;39.00;;;;;;5015323;28;20026;-74
2023/06/22 09:59:18;;;;;;;13.20;6.05;;;33.10;38.90;;;;;;5015489;28;20022;-74
2023/06/22 10:02:04;;;;;;;14.80;6.07;;;33.20;38.80;;;;;;5015759;28;20037;-74
2023/06/22 10:04:32;;;;;;;15.75;6.05;;;33.20;38.60;;;;;;5015396;28;20041;-75
2023/06/22 10:06:58;;;;;;;11.15;5.32;;;33.20;38.40;;;;;;5014137;28;20022;-74
2023/06/22 10:09:32;;;;;;;25.55;5.30;;;33.30;38.20;;;;;;5015098;28;20456;-75
2023/06/22 10:11:59;;;;;;;14.93;6.20;;;33.20;37.90;;;;;;5015067;28;20030;-74
2023/06/22 10:14:25;;;;;;;9.43;5.05;;;33.30;38.00;;;;;;4998068;28;20087;-75
2023/06/22 10:16:52;;;;;;;10.20;4.97;;;33.30;38.50;;;;;;5015058;28;20481;-75
2023/06/22 10:19:20;;;;;;;15.60;5.53;;;33.40;38.60;;;;;;5015200;28;20030;-75
2023/06/22 10:21:51;;;;;;;10.40;4.70;;;33.50;38.20;;;;;;5015171;28;20025;-75
2023/06/22 10:24:17;;;;;;;14.93;5.40;;;33.60;38.40;;;;;;4997760;28;20034;-75
2023/06/22 10:26:43;;;;;;;15.20;5.95;;;33.70;38.30;;;;;;5015132;28;20111;-75
2023/06/22 10:29:14;;;;;;;10.30;5.00;;;33.80;38.20;;;;;;5014703;28;20030;-75
2023/06/22 10:31:40;;;;;;;10.10;4.80;;;33.80;38.10;;;;;;4997071;28;20439;-75
2023/06/22 10:34:05;;;;;;;7.22;4.50;;;33.80;38.00;;;;;;5014676;28;20041;-75
2023/06/22 10:36:31;;;;;;;9.93;5.45;;;34.00;38.10;;;;;;5014619;28;20116;-75
2023/06/22 10:39:01;;;;;;;10.25;4.95;;;34.00;38.00;;;;;;5014655;28;20033;-75
2023/06/22 10:41:30;;;;;;;11.60;4.88;;;34.10;37.80;;;;;;5014154;28;20037;-75
2023/06/22 10:43:59;;;;;;;13.10;5.70;;;34.10;37.40;;;;;;5014445;28;20030;-75
2023/06/22 10:46:28;;;;;;;10.88;6.03;;;34.20;38.00;;;;;;5016791;28;20037;-75
2023/06/22 10:48:55;;;;;;;15.48;5.35;;;34.20;37.30;;;;;;5034369;28;20633;-75
2023/06/22 10:51:28;;;;;;;8.20;5.15;;;34.20;37.50;;;;;;5033458;28;20068;-72
2023/06/22 10:53:58;;;;;;;10.85;5.55;;;34.20;37.20;;;;;;5024093;28;20029;-75
2023/06/22 10:56:26;;;;;;;15.10;5.20;;;34.30;37.40;;;;;;5033996;28;20026;-75
2023/06/22 10:58:58;;;;;;;12.48;5.05;;;34.30;37.20;;;;;;5009614;28;20029;-75
2023/06/22 11:01:23;;;;;;;13.63;5.50;;;34.30;37.10;;;;;;5034320;28;20032;-75
2023/06/22 11:03:51;;;;;;;9.52;5.35;;;34.40;37.00;;;;;;5034094;28;20104;-69
2023/06/22 11:06:25;;;;;;;12.50;5.70;;;34.40;37.00;;;;;;5023581;28;20096;-75
2023/06/22 11:08:58;;;;;;;9.95;5.03;;;34.40;37.20;;;;;;5031221;28;20134;-77
2023/06/22 11:11:25;;;;;;;8.93;5.40;;;34.50;37.10;;;;;;5034016;28;20033;-75
2023/06/22 11:13:56;;;;;;;11.23;5.10;;;34.50;37.00;;;;;;5033788;28;20064;-75
2023/06/22 11:16:28;;;;;;;13.77;5.00;;;34.50;36.80;;;;;;5034255;28;20040;-75
2023/06/22 11:19:03;;;;;;;19.00;6.18;;;34.50;36.90;;;;;;5033586;28;20026;-74
2023/06/22 11:21:28;;;;;;;18.65;6.18;;;34.50;37.20;;;;;;5016087;28;20388;-74
2023/06/22 11:24:00;;;;;;;14.20;5.35;;;34.50;36.60;;;;;;5033581;28;20025;-74
2023/06/22 11:26:28;;;;;;;14.38;4.80;;;34.50;36.90;;;;;;5033562;28;20544;-75
2023/06/22 11:28:54;;;;;;;12.70;5.13;;;34.60;36.90;;;;;;5033794;28;20026;-74
2023/06/22 11:31:25;;;;;;;10.23;4.78;;;34.70;36.70;;;;;;5033588;28;20079;-75
2023/06/22 11:33:55;;;;;;;18.48;5.78;;;34.70;36.90;;;;;;5033466;28;20033;-75
2023/06/22 11:36:27;;;;;;;9.80;5.28;;;34.80;36.70;;;;;;5033431;28;20026;-75
2023/06/22 11:38:58;;;;;;;14.13;4.80;;;34.90;36.70;;;;;;5009485;28;20026;-75
2023/06/22 11:41:29;;;;;;;13.00;5.55;;;34.90;36.60;;;;;;5012329;28;20072;-75
2023/06/22 11:44:00;;;;;;;16.58;6.40;;;35.00;36.70;;;;;;5002051;28;20477;-75
2023/06/22 11:46:32;;;;;;;10.45;5.55;;;35.10;36.10;;;;;;5033125;28;20512;-75
2023/06/22 11:48:58;;;;;;;12.75;6.45;;;35.10;36.50;;;;;;5032868;28;20065;-75
2023/06/22 11:51:31;;;;;;;15.27;6.00;;;35.20;36.30;;;;;;5033074;28;20049;-75
2023/06/22 11:54:03;;;;;;;18.90;5.60;;;35.30;36.40;;;;;;5025052;28;20037;-75
2023/06/22 11:56:34;;;;;;;10.90;5.32;;;35.40;35.80;;;;;;4995797;28;20037;-75
2023/06/22 11:59:05;;;;;;;10.85;5.15;;;35.50;36.00;;;;;;4999070;28;20501;-75
2023/06/22 12:01:36;;;;;;;19.30;5.10;;;35.60;35.70;;;;;;4976071;28;20084;-73
2023/06/22 12:04:11;;;;;;;14.20;5.63;;;35.60;35.20;;;;;;4976101;28;20038;-76
2023/06/22 12:06:43;;;;;;;13.20;5.28;;;35.80;35.30;;;;;;4992397;28;20142;-75
2023/06/22 12:09:13;;;;;;;11.30;5.07;;;35.80;35.20;;;;;;4993429;28;20450;-75
2023/06/22 12:11:45;;;;;;;19.30;6.10;;;35.80;35.00;;;;;;4976157;28;20037;-75
2023/06/22 12:14:13;;;;;;;13.07;5.40;;;35.80;35.00;;;;;;5002155;28;20088;-75
2023/06/22 12:16:39;;;;;;;12.48;5.45;;;35.80;34.80;;;;;;5015663;28;20477;-74
2023/06/22 12:19:10;;;;;;;17.02;6.13;;;35.80;34.70;;;;;;5012959;28;20029;-75
2023/06/22 12:21:45;;;;;;;16.42;5.75;;;35.70;34.50;;;;;;5012939;28;20022;-76
2023/06/22 12:24:19;;;;;;;11.43;5.65;;;35.70;34.90;;;;;;5012783;28;20026;-75
2023/06/22 12:26:44;;;;;;;14.60;6.40;;;35.70;35.20;;;;;;5013051;28;20077;-76
2023/06/22 12:29:10;;;;;;;14.52;5.05;;;35.70;35.00;;;;;;5012948;28;20030;-76
2023/06/22 12:31:39;;;;;;;20.83;6.47;;;35.70;35.30;;;;;;5011587;28;20121;-73
2023/06/22 12:34:05;;;;;;;16.60;6.15;;;35.70;35.50;;;;;;5013249;28;20038;-74
2023/06/22 12:36:33;;;;;;;19.65;5.68;;;35.60;35.50;;;;;;5012376;28;20029;-74
2023/06/22 12:39:05;;;;;;;12.75;4.88;;;35.60;35.70;;;;;;5012837;28;20033;-74
2023/06/22 12:41:30;;;;;;;14.55;5.47;;;35.70;35.70;;;;;;5012481;28;20022;-75
2023/06/22 12:43:58;;;;;;;17.50;6.47;;;35.80;35.80;;;;;;4994963;28;20044;-75
2023/06/22 12:46:24;;;;;;;17.63;5.32;;;35.80;35.60;;;;;;5011434;28;20072;-74
2023/06/22 12:48:50;;;;;;;17.90;6.88;;;35.90;35.50;;;;;;5032223;28;20096;-74
2023/06/22 12:51:25;;;;;;;27.65;6.85;;;36.00;35.40;;;;;;5032291;28;20103;-74
2023/06/22 12:53:54;;;;;;;9.68;5.28;;;35.90;35.40;;;;;;5014458;28;20546;-75
2023/06/22 12:56:19;;;;;;;18.40;5.93;;;36.00;35.50;;;;;;5012247;28;20026;-75
2023/06/22 12:58:45;;;;;;;12.73;5.50;;;36.00;35.50;;;;;;5005176;28;20060;-74
2023/06/22 13:01:11;;;;;;;11.77;5.70;;;36.10;35.60;;;;;;5012317;28;20474;-75
2023/06/22 13:03:36;;;;;;;12.25;5.70;;;36.20;35.40;;;;;;5011817;28;20096;-74
2023/06/22 13:06:05;;;;;;;11.85;6.18;;;36.20;35.30;;;;;;5012063;28;20029;-74
2023/06/22 13:08:31;;;;;;;18.65;5.60;;;36.30;35.10;;;;;;5012109;28;20029;-74
2023/06/22 13:10:56;;;;;;;18.42;5.65;;;36.30;35.20;;;;;;5011008;28;20037;-74
2023/06/22 13:13:27;;;;;;;12.18;6.13;;;36.30;35.30;;;;;;5012111;28;20033;-74
2023/06/22 13:15:55;;;;;;;14.50;6.32;;;36.40;34.90;;;;;;5011969;28;20038;-74
2023/06/22 13:18:21;;;;;;;21.88;6.95;;;36.40;34.90;;;;;;5010885;28;20049;-74
2023/06/22 13:20:46;;;;;;;12.35;5.55;;;36.50;34.40;;;;;;5011967;28;20523;-75
2023/06/22 13:23:12;;;;;;;14.90;6.18;;;36.60;34.50;;;;;;5011962;28;20049;-74
2023/06/22 13:25:39;;;;;;;11.77;5.18;;;36.60;34.50;;;;;;5011989;28;20087;-75
2023/06/22 13:28:10;;;;;;;9.70;6.20;;;36.70;34.60;;;;;;5011885;28;20022;-74
2023/06/22 13:30:39;;;;;;;15.23;5.78;;;36.80;34.30;;;;;;4994835;28;20053;-74
2023/06/22 13:33:04;;;;;;;10.32;4.95;;;36.90;33.90;;;;;;5012246;28;20450;-74
2023/06/22 13:35:30;;;;;;;13.75;6.07;;;37.00;34.20;;;;;;5011807;28;20030;-74
2023/06/22 13:37:56;;;;;;;23.42;6.53;;;37.20;33.70;;;;;;5010606;28;20125;-75
2023/06/22 13:40:22;;;;;;;9.82;5.72;;;37.20;33.50;;;;;;5011811;28;20022;-74
2023/06/22 13:42:47;;;;;;;18.65;5.80;;;37.30;33.80;;;;;;5011770;28;20079;-74
2023/06/22 13:45:13;;;;;;;12.88;5.95;;;37.40;33.60;;;;;;5011857;28;20080;-74
2023/06/22 13:47:39;;;;;;;12.88;5.60;;;37.50;33.60;;;;;;5011412;28;20037;-75
2023/06/22 13:50:08;;;;;;;9.27;5.20;;;37.60;33.50;;;;;;4994181;28;20131;-75
2023/06/22 13:52:34;;;;;;;12.38;6.38;;;37.70;33.60;;;;;;5011664;28;20032;-74
2023/06/22 13:55:00;;;;;;;13.15;6.00;;;37.80;33.00;;;;;;5011746;28;20022;-74
2023/06/22 13:57:28;;;;;;;17.98;6.10;;;37.80;32.70;;;;;;5005713;28;20026;-74
2023/06/22 13:59:59;;;;;;;8.15;5.40;;;37.90;33.00;;;;;;5012064;28;20097;-75
2023/06/22 14:02:28;;;;;;;13.07;6.15;;;38.10;33.20;;;;;;5011957;28;20029;-74
2023/06/22 14:04:54;;;;;;;18.33;6.50;;;38.30;32.80;;;;;;5011657;28;20030;-74
2023/06/22 14:07:20;;;;;;;16.80;6.35;;;38.40;32.60;;;;;;5011636;28;20037;-75
2023/06/22 14:09:46;;;;;;;17.38;7.25;;;38.60;32.30;;;;;;5011425;28;20022;-75
2023/06/22 14:12:15;;;;;;;15.85;6.38;;;38.70;31.70;;;;;;5011913;28;20370;-74
2023/06/22 14:14:41;;;;;;;13.13;5.93;;;38.90;31.80;;;;;;4995123;28;20496;-75
2023/06/22 14:17:07;;;;;;;15.95;6.10;;;39.00;31.40;;;;;;5033487;28;20025;-75
2023/06/22 14:19:32;;;;;;;14.70;5.00;;;39.10;31.40;;;;;;5034916;28;20092;-75
2023/06/22 14:21:58;;;;;;;17.42;6.80;;;39.30;31.10;;;;;;5033288;28;20072;-74
2023/06/22 14:24:26;;;;;;;19.45;6.43;;;39.40;30.60;;;;;;5017120;28;20033;-74
2023/06/22 14:26:52;;;;;;;13.20;5.45;;;39.50;30.70;;;;;;5034692;28;20465;-74
2023/06/22 14:29:20;;;;;;;13.13;5.80;;;39.50;30.80;;;;;;5034907;28;20044;-74
2023/06/22 14:31:46;;;;;;;11.13;6.15;;;39.70;30.60;;;;;;5035164;28;20071;-74
2023/06/22 14:34:12;;;;;;;12.18;6.75;;;39.80;30.30;;;;;;5034428;28;20104;-75
2023/06/22 14:36:41;;;;;;;11.15;6.45;;;40.00;30.10;;;;;;5034366;28;20097;-75
2023/06/22 14:39:07;;;;;;;15.02;6.68;;;40.10;29.90;;;;;;5016751;28;20420;-74
2023/06/22 14:41:32;;;;;;;12.48;6.68;;;40.40;29.80;;;;;;5034400;28;20036;-75
2023/06/22 14:44:00;;;;;;;14.52;6.38;;;40.50;30.00;;;;;;5034527;28;20080;-75
2023/06/22 14:46:30;;;;;;;21.58;6.68;;;40.60;29.60;;;;;;5032867;28;20034;-74
2023/06/22 14:48:59;;;;;;;14.30;7.80;;;40.70;29.60;;;;;;5033111;28;20036;-74
2023/06/22 14:51:27;;;;;;;13.00;6.75;;;40.80;29.30;;;;;;5034071;28;20037;-75
2023/06/22 14:53:52;;;;;;;16.88;7.22;;;41.00;29.20;;;;;;5034399;28;20037;-75
2023/06/22 14:56:18;;;;;;;19.35;8.15;;;41.10;29.00;;;;;;5016612;28;20033;-74
2023/06/22 14:58:45;;;;;;;14.13;7.28;;;41.30;28.60;;;;;;5032881;28;20033;-75
2023/06/22 15:01:11;;;;;;;17.98;8.55;;;41.40;28.80;;;;;;5017707;28;20025;-74
2023/06/22 15:03:40;;;;;;;10.38;6.22;;;41.50;28.40;;;;;;4996485;28;20030;-75
2023/06/22 15:06:05;;;;;;;13.10;7.22;;;41.70;29.20;;;;;;5014228;28;20489;-75
2023/06/22 15:08:34;;;;;;;14.13;7.07;;;41.90;28.30;;;;;;5014291;28;20053;-75